Aviation Digital Data Service (ADDS)

Output produced by METARs form (1256 UTC 22 March 2019)
found at http://www.aviationweather.gov/metar/data/
 
METAR text: LIME 221250Z VRB04KT CAVOK 17/M00 Q1029 NOSIG
Conditions at: LIME (BERGAMO/ORIO SER, IT) observed 1250 UTC 22 March 2019
Temperature: 17.0°C (63°F)
Dewpoint: 0.0°C (32°F) [RH = 32%]
Pressure (altimeter): 30.38 inches Hg (1029.0 mb)
Winds: variable direction winds at 5 MPH (4 knots; 2.1 m/s)
Visibility: 6 or more miles (10+ km)
Ceiling: ceiling and visibility are OK
Clouds: unknown
Weather: no significant weather observed at this time

METAR text: LIME 221220Z 23004KT 170V270 CAVOK 17/00 Q1029 NOSIG
Conditions at: LIME (BERGAMO/ORIO SER, IT) observed 1220 UTC 22 March 2019
Temperature: 17.0°C (63°F)
Dewpoint: 0.0°C (32°F) [RH = 32%]
Pressure (altimeter): 30.38 inches Hg (1029.0 mb)
Winds: from the SW (230 degrees) at 5 MPH (4 knots; 2.1 m/s)
Visibility: 6 or more miles (10+ km)
Ceiling: ceiling and visibility are OK
Clouds: unknown
Weather: no significant weather observed at this time

METAR text: LIME 221150Z 21005KT 140V280 CAVOK 16/M00 Q1030 NOSIG
Conditions at: LIME (BERGAMO/ORIO SER, IT) observed 1150 UTC 22 March 2019
Temperature: 16.0°C (61°F)
Dewpoint: 0.0°C (32°F) [RH = 34%]
Pressure (altimeter): 30.41 inches Hg (1030.0 mb)
Winds: from the SSW (210 degrees) at 6 MPH (5 knots; 2.6 m/s)
Visibility: 6 or more miles (10+ km)
Ceiling: ceiling and visibility are OK
Clouds: unknown
Weather: no significant weather observed at this time

METAR text: LIME 221120Z VRB03KT CAVOK 17/01 Q1030 NOSIG
Conditions at: LIME (BERGAMO/ORIO SER, IT) observed 1120 UTC 22 March 2019
Temperature: 17.0°C (63°F)
Dewpoint: 1.0°C (34°F) [RH = 34%]
Pressure (altimeter): 30.41 inches Hg (1030.0 mb)
Winds: variable direction winds at 3 MPH (3 knots; 1.5 m/s)
Visibility: 6 or more miles (10+ km)
Ceiling: ceiling and visibility are OK
Clouds: unknown
Weather: no significant weather observed at this time

METAR text: LIME 221050Z VRB04KT CAVOK 16/00 Q1030 NOSIG
Conditions at: LIME (BERGAMO/ORIO SER, IT) observed 1050 UTC 22 March 2019
Temperature: 16.0°C (61°F)
Dewpoint: 0.0°C (32°F) [RH = 34%]
Pressure (altimeter): 30.41 inches Hg (1030.0 mb)
Winds: variable direction winds at 5 MPH (4 knots; 2.1 m/s)
Visibility: 6 or more miles (10+ km)
Ceiling: ceiling and visibility are OK
Clouds: unknown
Weather: no significant weather observed at this time

METAR text: LIME 221020Z 23004KT 180V290 CAVOK 15/01 Q1030 NOSIG
Conditions at: LIME (BERGAMO/ORIO SER, IT) observed 1020 UTC 22 March 2019
Temperature: 15.0°C (59°F)
Dewpoint: 1.0°C (34°F) [RH = 39%]
Pressure (altimeter): 30.41 inches Hg (1030.0 mb)
Winds: from the SW (230 degrees) at 5 MPH (4 knots; 2.1 m/s)
Visibility: 6 or more miles (10+ km)
Ceiling: ceiling and visibility are OK
Clouds: unknown
Weather: no significant weather observed at this time

METAR text: LIME 220950Z 23004KT 180V270 CAVOK 14/M00 Q1031 NOSIG
Conditions at: LIME (BERGAMO/ORIO SER, IT) observed 0950 UTC 22 March 2019
Temperature: 14.0°C (57°F)
Dewpoint: 0.0°C (32°F) [RH = 38%]
Pressure (altimeter): 30.44 inches Hg (1031.0 mb)
Winds: from the SW (230 degrees) at 5 MPH (4 knots; 2.1 m/s)
Visibility: 6 or more miles (10+ km)
Ceiling: ceiling and visibility are OK
Clouds: unknown
Weather: no significant weather observed at this time

METAR text: LIME 220920Z 19004KT 160V240 CAVOK 14/02 Q1031 NOSIG
Conditions at: LIME (BERGAMO/ORIO SER, IT) observed 0920 UTC 22 March 2019
Temperature: 14.0°C (57°F)
Dewpoint: 2.0°C (36°F) [RH = 44%]
Pressure (altimeter): 30.44 inches Hg (1031.0 mb)
Winds: from the S (190 degrees) at 5 MPH (4 knots; 2.1 m/s)
Visibility: 6 or more miles (10+ km)
Ceiling: ceiling and visibility are OK
Clouds: unknown
Weather: no significant weather observed at this time

METAR text: LIME 220850Z VRB02KT CAVOK 13/00 Q1031 NOSIG
Conditions at: LIME (BERGAMO/ORIO SER, IT) observed 0850 UTC 22 March 2019
Temperature: 13.0°C (55°F)
Dewpoint: 0.0°C (32°F) [RH = 41%]
Pressure (altimeter): 30.44 inches Hg (1031.0 mb)
Winds: variable direction winds at 2 MPH (2 knots; 1.0 m/s)
Visibility: 6 or more miles (10+ km)
Ceiling: ceiling and visibility are OK
Clouds: unknown
Weather: no significant weather observed at this time

METAR text: LIME 220820Z VRB01KT CAVOK 12/01 Q1031 NOSIG
Conditions at: LIME (BERGAMO/ORIO SER, IT) observed 0820 UTC 22 March 2019
Temperature: 12.0°C (54°F)
Dewpoint: 1.0°C (34°F) [RH = 47%]
Pressure (altimeter): 30.44 inches Hg (1031.0 mb)
Winds: variable direction winds at 1 MPH (1 knots; 0.5 m/s)
Visibility: 6 or more miles (10+ km)
Ceiling: ceiling and visibility are OK
Clouds: unknown
Weather: no significant weather observed at this time

METAR text: LIME 220750Z VRB01KT CAVOK 11/01 Q1031 NOSIG
Conditions at: LIME (BERGAMO/ORIO SER, IT) observed 0750 UTC 22 March 2019
Temperature: 11.0°C (52°F)
Dewpoint: 1.0°C (34°F) [RH = 50%]
Pressure (altimeter): 30.44 inches Hg (1031.0 mb)
Winds: variable direction winds at 1 MPH (1 knots; 0.5 m/s)
Visibility: 6 or more miles (10+ km)
Ceiling: ceiling and visibility are OK
Clouds: unknown
Weather: no significant weather observed at this time

METAR text: LIME 220720Z 01004KT CAVOK 08/01 Q1031 NOSIG
Conditions at: LIME (BERGAMO/ORIO SER, IT) observed 0720 UTC 22 March 2019
Temperature: 8.0°C (46°F)
Dewpoint: 1.0°C (34°F) [RH = 61%]
Pressure (altimeter): 30.44 inches Hg (1031.0 mb)
Winds: from the N (10 degrees) at 5 MPH (4 knots; 2.1 m/s)
Visibility: 6 or more miles (10+ km)
Ceiling: ceiling and visibility are OK
Clouds: unknown
Weather: no significant weather observed at this time

METAR text: LIME 220650Z 01005KT CAVOK 07/01 Q1031 NOSIG
Conditions at: LIME (BERGAMO/ORIO SER, IT) observed 0650 UTC 22 March 2019
Temperature: 7.0°C (45°F)
Dewpoint: 1.0°C (34°F) [RH = 66%]
Pressure (altimeter): 30.44 inches Hg (1031.0 mb)
Winds: from the N (10 degrees) at 6 MPH (5 knots; 2.6 m/s)
Visibility: 6 or more miles (10+ km)
Ceiling: ceiling and visibility are OK
Clouds: unknown
Weather: no significant weather observed at this time

METAR text: LIME 220620Z 01006KT CAVOK 05/M00 Q1031 NOSIG
Conditions at: LIME (BERGAMO/ORIO SER, IT) observed 0620 UTC 22 March 2019
Temperature: 5.0°C (41°F)
Dewpoint: 0.0°C (32°F) [RH = 70%]
Pressure (altimeter): 30.44 inches Hg (1031.0 mb)
Winds: from the N (10 degrees) at 7 MPH (6 knots; 3.1 m/s)
Visibility: 6 or more miles (10+ km)
Ceiling: ceiling and visibility are OK
Clouds: unknown
Weather: no significant weather observed at this time

METAR text: LIME 220550Z 36004KT CAVOK 04/M01 Q1030 NOSIG
Conditions at: LIME (BERGAMO/ORIO SER, IT) observed 0550 UTC 22 March 2019
Temperature: 4.0°C (39°F)
Dewpoint: -1.0°C (30°F) [RH = 70%]
Pressure (altimeter): 30.41 inches Hg (1030.0 mb)
Winds: from the N (360 degrees) at 5 MPH (4 knots; 2.1 m/s)
Visibility: 6 or more miles (10+ km)
Ceiling: ceiling and visibility are OK
Clouds: unknown
Weather: no significant weather observed at this time

METAR text: LIME 220520Z 36004KT CAVOK 04/M01 Q1030 NOSIG
Conditions at: LIME (BERGAMO/ORIO SER, IT) observed 0520 UTC 22 March 2019
Temperature: 4.0°C (39°F)
Dewpoint: -1.0°C (30°F) [RH = 70%]
Pressure (altimeter): 30.41 inches Hg (1030.0 mb)
Winds: from the N (360 degrees) at 5 MPH (4 knots; 2.1 m/s)
Visibility: 6 or more miles (10+ km)
Ceiling: ceiling and visibility are OK
Clouds: unknown
Weather: no significant weather observed at this time

METAR text: LIME 220450Z 36005KT CAVOK 05/M00 Q1030 NOSIG
Conditions at: LIME (BERGAMO/ORIO SER, IT) observed 0450 UTC 22 March 2019
Temperature: 5.0°C (41°F)
Dewpoint: 0.0°C (32°F) [RH = 70%]
Pressure (altimeter): 30.41 inches Hg (1030.0 mb)
Winds: from the N (360 degrees) at 6 MPH (5 knots; 2.6 m/s)
Visibility: 6 or more miles (10+ km)
Ceiling: ceiling and visibility are OK
Clouds: unknown
Weather: no significant weather observed at this time

METAR text: LIME 220420Z 36005KT CAVOK 04/M00 Q1030 NOSIG
Conditions at: LIME (BERGAMO/ORIO SER, IT) observed 0420 UTC 22 March 2019
Temperature: 4.0°C (39°F)
Dewpoint: 0.0°C (32°F) [RH = 75%]
Pressure (altimeter): 30.41 inches Hg (1030.0 mb)
Winds: from the N (360 degrees) at 6 MPH (5 knots; 2.6 m/s)
Visibility: 6 or more miles (10+ km)
Ceiling: ceiling and visibility are OK
Clouds: unknown
Weather: no significant weather observed at this time

METAR text: LIME 220350Z 36005KT CAVOK 05/M00 Q1030 NOSIG
Conditions at: LIME (BERGAMO/ORIO SER, IT) observed 0350 UTC 22 March 2019
Temperature: 5.0°C (41°F)
Dewpoint: 0.0°C (32°F) [RH = 70%]
Pressure (altimeter): 30.41 inches Hg (1030.0 mb)
Winds: from the N (360 degrees) at 6 MPH (5 knots; 2.6 m/s)
Visibility: 6 or more miles (10+ km)
Ceiling: ceiling and visibility are OK
Clouds: unknown
Weather: no significant weather observed at this time

METAR text: LIME 220320Z 36005KT CAVOK 05/M00 Q1030 NOSIG
Conditions at: LIME (BERGAMO/ORIO SER, IT) observed 0320 UTC 22 March 2019
Temperature: 5.0°C (41°F)
Dewpoint: 0.0°C (32°F) [RH = 70%]
Pressure (altimeter): 30.41 inches Hg (1030.0 mb)
Winds: from the N (360 degrees) at 6 MPH (5 knots; 2.6 m/s)
Visibility: 6 or more miles (10+ km)
Ceiling: ceiling and visibility are OK
Clouds: unknown
Weather: no significant weather observed at this time

METAR text: LIME 220250Z 36005KT CAVOK 04/M00 Q1030 NOSIG
Conditions at: LIME (BERGAMO/ORIO SER, IT) observed 0250 UTC 22 March 2019
Temperature: 4.0°C (39°F)
Dewpoint: 0.0°C (32°F) [RH = 75%]
Pressure (altimeter): 30.41 inches Hg (1030.0 mb)
Winds: from the N (360 degrees) at 6 MPH (5 knots; 2.6 m/s)
Visibility: 6 or more miles (10+ km)
Ceiling: ceiling and visibility are OK
Clouds: unknown
Weather: no significant weather observed at this time

METAR text: LIME 220220Z 35004KT CAVOK 05/00 Q1030 NOSIG
Conditions at: LIME (BERGAMO/ORIO SER, IT) observed 0220 UTC 22 March 2019
Temperature: 5.0°C (41°F)
Dewpoint: 0.0°C (32°F) [RH = 70%]
Pressure (altimeter): 30.41 inches Hg (1030.0 mb)
Winds: from the N (350 degrees) at 5 MPH (4 knots; 2.1 m/s)
Visibility: 6 or more miles (10+ km)
Ceiling: ceiling and visibility are OK
Clouds: unknown
Weather: no significant weather observed at this time

METAR text: LIME 220150Z 22006KT 080V210 CAVOK 05/00 Q1030 NOSIG
Conditions at: LIME (BERGAMO/ORIO SER, IT) observed 0150 UTC 22 March 2019
Temperature: 5.0°C (41°F)
Dewpoint: 0.0°C (32°F) [RH = 70%]
Pressure (altimeter): 30.41 inches Hg (1030.0 mb)
Winds: from the SW (220 degrees) at 7 MPH (6 knots; 3.1 m/s)
Visibility: 6 or more miles (10+ km)
Ceiling: ceiling and visibility are OK
Clouds: unknown
Weather: no significant weather observed at this time

METAR text: LIME 220120Z 01005KT CAVOK 05/M00 Q1031 NOSIG
Conditions at: LIME (BERGAMO/ORIO SER, IT) observed 0120 UTC 22 March 2019
Temperature: 5.0°C (41°F)
Dewpoint: 0.0°C (32°F) [RH = 70%]
Pressure (altimeter): 30.44 inches Hg (1031.0 mb)
Winds: from the N (10 degrees) at 6 MPH (5 knots; 2.6 m/s)
Visibility: 6 or more miles (10+ km)
Ceiling: ceiling and visibility are OK
Clouds: unknown
Weather: no significant weather observed at this time

METAR text: LIME 220050Z 36004KT CAVOK 05/00 Q1031 NOSIG
Conditions at: LIME (BERGAMO/ORIO SER, IT) observed 0050 UTC 22 March 2019
Temperature: 5.0°C (41°F)
Dewpoint: 0.0°C (32°F) [RH = 70%]
Pressure (altimeter): 30.44 inches Hg (1031.0 mb)
Winds: from the N (360 degrees) at 5 MPH (4 knots; 2.1 m/s)
Visibility: 6 or more miles (10+ km)
Ceiling: ceiling and visibility are OK
Clouds: unknown
Weather: no significant weather observed at this time

METAR text: LIME 220020Z 02005KT CAVOK 06/00 Q1031 NOSIG
Conditions at: LIME (BERGAMO/ORIO SER, IT) observed 0020 UTC 22 March 2019
Temperature: 6.0°C (43°F)
Dewpoint: 0.0°C (32°F) [RH = 65%]
Pressure (altimeter): 30.44 inches Hg (1031.0 mb)
Winds: from the NNE (20 degrees) at 6 MPH (5 knots; 2.6 m/s)
Visibility: 6 or more miles (10+ km)
Ceiling: ceiling and visibility are OK
Clouds: unknown
Weather: no significant weather observed at this time

METAR text: LIME 212350Z 02005KT CAVOK 06/00 Q1031 NOSIG
Conditions at: LIME (BERGAMO/ORIO SER, IT) observed 2350 UTC 21 March 2019
Temperature: 6.0°C (43°F)
Dewpoint: 0.0°C (32°F) [RH = 65%]
Pressure (altimeter): 30.44 inches Hg (1031.0 mb)
Winds: from the NNE (20 degrees) at 6 MPH (5 knots; 2.6 m/s)
Visibility: 6 or more miles (10+ km)
Ceiling: ceiling and visibility are OK
Clouds: unknown
Weather: no significant weather observed at this time

METAR text: LIME 212320Z 36006KT CAVOK 06/00 Q1031 NOSIG
Conditions at: LIME (BERGAMO/ORIO SER, IT) observed 2320 UTC 21 March 2019
Temperature: 6.0°C (43°F)
Dewpoint: 0.0°C (32°F) [RH = 65%]
Pressure (altimeter): 30.44 inches Hg (1031.0 mb)
Winds: from the N (360 degrees) at 7 MPH (6 knots; 3.1 m/s)
Visibility: 6 or more miles (10+ km)
Ceiling: ceiling and visibility are OK
Clouds: unknown
Weather: no significant weather observed at this time

METAR text: LIME 212250Z 01005KT CAVOK 06/00 Q1031 NOSIG
Conditions at: LIME (BERGAMO/ORIO SER, IT) observed 2250 UTC 21 March 2019
Temperature: 6.0°C (43°F)
Dewpoint: 0.0°C (32°F) [RH = 65%]
Pressure (altimeter): 30.44 inches Hg (1031.0 mb)
Winds: from the N (10 degrees) at 6 MPH (5 knots; 2.6 m/s)
Visibility: 6 or more miles (10+ km)
Ceiling: ceiling and visibility are OK
Clouds: unknown
Weather: no significant weather observed at this time

METAR text: LIME 212220Z 01005KT CAVOK 06/00 Q1031 NOSIG
Conditions at: LIME (BERGAMO/ORIO SER, IT) observed 2220 UTC 21 March 2019
Temperature: 6.0°C (43°F)
Dewpoint: 0.0°C (32°F) [RH = 65%]
Pressure (altimeter): 30.44 inches Hg (1031.0 mb)
Winds: from the N (10 degrees) at 6 MPH (5 knots; 2.6 m/s)
Visibility: 6 or more miles (10+ km)
Ceiling: ceiling and visibility are OK
Clouds: unknown
Weather: no significant weather observed at this time

METAR text: LIME 212150Z 01005KT CAVOK 06/01 Q1031 NOSIG
Conditions at: LIME (BERGAMO/ORIO SER, IT) observed 2150 UTC 21 March 2019
Temperature: 6.0°C (43°F)
Dewpoint: 1.0°C (34°F) [RH = 70%]
Pressure (altimeter): 30.44 inches Hg (1031.0 mb)
Winds: from the N (10 degrees) at 6 MPH (5 knots; 2.6 m/s)
Visibility: 6 or more miles (10+ km)
Ceiling: ceiling and visibility are OK
Clouds: unknown
Weather: no significant weather observed at this time

METAR text: LIME 212120Z 36005KT CAVOK 07/01 Q1031 NOSIG
Conditions at: LIME (BERGAMO/ORIO SER, IT) observed 2120 UTC 21 March 2019
Temperature: 7.0°C (45°F)
Dewpoint: 1.0°C (34°F) [RH = 66%]
Pressure (altimeter): 30.44 inches Hg (1031.0 mb)
Winds: from the N (360 degrees) at 6 MPH (5 knots; 2.6 m/s)
Visibility: 6 or more miles (10+ km)
Ceiling: ceiling and visibility are OK
Clouds: unknown
Weather: no significant weather observed at this time

METAR text: LIME 212050Z 36005KT CAVOK 08/00 Q1031 NOSIG
Conditions at: LIME (BERGAMO/ORIO SER, IT) observed 2050 UTC 21 March 2019
Temperature: 8.0°C (46°F)
Dewpoint: 0.0°C (32°F) [RH = 57%]
Pressure (altimeter): 30.44 inches Hg (1031.0 mb)
Winds: from the N (360 degrees) at 6 MPH (5 knots; 2.6 m/s)
Visibility: 6 or more miles (10+ km)
Ceiling: ceiling and visibility are OK
Clouds: unknown
Weather: no significant weather observed at this time

METAR text: LIME 212020Z 36005KT CAVOK 08/00 Q1031 NOSIG
Conditions at: LIME (BERGAMO/ORIO SER, IT) observed 2020 UTC 21 March 2019
Temperature: 8.0°C (46°F)
Dewpoint: 0.0°C (32°F) [RH = 57%]
Pressure (altimeter): 30.44 inches Hg (1031.0 mb)
Winds: from the N (360 degrees) at 6 MPH (5 knots; 2.6 m/s)
Visibility: 6 or more miles (10+ km)
Ceiling: ceiling and visibility are OK
Clouds: unknown
Weather: no significant weather observed at this time

METAR text: LIME 211950Z 36005KT CAVOK 09/00 Q1031 NOSIG
Conditions at: LIME (BERGAMO/ORIO SER, IT) observed 1950 UTC 21 March 2019
Temperature: 9.0°C (48°F)
Dewpoint: 0.0°C (32°F) [RH = 53%]
Pressure (altimeter): 30.44 inches Hg (1031.0 mb)
Winds: from the N (360 degrees) at 6 MPH (5 knots; 2.6 m/s)
Visibility: 6 or more miles (10+ km)
Ceiling: ceiling and visibility are OK
Clouds: unknown
Weather: no significant weather observed at this time

METAR text: LIME 211920Z 02003KT CAVOK 09/00 Q1031 NOSIG
Conditions at: LIME (BERGAMO/ORIO SER, IT) observed 1920 UTC 21 March 2019
Temperature: 9.0°C (48°F)
Dewpoint: 0.0°C (32°F) [RH = 53%]
Pressure (altimeter): 30.44 inches Hg (1031.0 mb)
Winds: from the NNE (20 degrees) at 3 MPH (3 knots; 1.5 m/s)
Visibility: 6 or more miles (10+ km)
Ceiling: ceiling and visibility are OK
Clouds: unknown
Weather: no significant weather observed at this time

METAR text: LIME 211850Z VRB01KT CAVOK 10/M01 Q1030 NOSIG
Conditions at: LIME (BERGAMO/ORIO SER, IT) observed 1850 UTC 21 March 2019
Temperature: 10.0°C (50°F)
Dewpoint: -1.0°C (30°F) [RH = 46%]
Pressure (altimeter): 30.41 inches Hg (1030.0 mb)
Winds: variable direction winds at 1 MPH (1 knots; 0.5 m/s)
Visibility: 6 or more miles (10+ km)
Ceiling: ceiling and visibility are OK
Clouds: unknown
Weather: no significant weather observed at this time

METAR text: LIME 211820Z 21003KT 150V280 CAVOK 10/M01 Q1030 NOSIG
Conditions at: LIME (BERGAMO/ORIO SER, IT) observed 1820 UTC 21 March 2019
Temperature: 10.0°C (50°F)
Dewpoint: -1.0°C (30°F) [RH = 46%]
Pressure (altimeter): 30.41 inches Hg (1030.0 mb)
Winds: from the SSW (210 degrees) at 3 MPH (3 knots; 1.5 m/s)
Visibility: 6 or more miles (10+ km)
Ceiling: ceiling and visibility are OK
Clouds: unknown
Weather: no significant weather observed at this time

METAR text: LIME 211750Z 20004KT CAVOK 12/M01 Q1030 NOSIG
Conditions at: LIME (BERGAMO/ORIO SER, IT) observed 1750 UTC 21 March 2019
Temperature: 12.0°C (54°F)
Dewpoint: -1.0°C (30°F) [RH = 40%]
Pressure (altimeter): 30.41 inches Hg (1030.0 mb)
Winds: from the SSW (200 degrees) at 5 MPH (4 knots; 2.1 m/s)
Visibility: 6 or more miles (10+ km)
Ceiling: ceiling and visibility are OK
Clouds: unknown
Weather: no significant weather observed at this time

METAR text: LIME 211720Z 19004KT 160V220 CAVOK 13/M01 Q1030 NOSIG
Conditions at: LIME (BERGAMO/ORIO SER, IT) observed 1720 UTC 21 March 2019
Temperature: 13.0°C (55°F)
Dewpoint: -1.0°C (30°F) [RH = 38%]
Pressure (altimeter): 30.41 inches Hg (1030.0 mb)
Winds: from the S (190 degrees) at 5 MPH (4 knots; 2.1 m/s)
Visibility: 6 or more miles (10+ km)
Ceiling: ceiling and visibility are OK
Clouds: unknown
Weather: no significant weather observed at this time

METAR text: LIME 211650Z 19005KT 140V210 CAVOK 13/M01 Q1029 NOSIG
Conditions at: LIME (BERGAMO/ORIO SER, IT) observed 1650 UTC 21 March 2019
Temperature: 13.0°C (55°F)
Dewpoint: -1.0°C (30°F) [RH = 38%]
Pressure (altimeter): 30.38 inches Hg (1029.0 mb)
Winds: from the S (190 degrees) at 6 MPH (5 knots; 2.6 m/s)
Visibility: 6 or more miles (10+ km)
Ceiling: ceiling and visibility are OK
Clouds: unknown
Weather: no significant weather observed at this time

METAR text: LIME 211620Z 18005KT 140V210 CAVOK 14/M01 Q1029 NOSIG
Conditions at: LIME (BERGAMO/ORIO SER, IT) observed 1620 UTC 21 March 2019
Temperature: 14.0°C (57°F)
Dewpoint: -1.0°C (30°F) [RH = 36%]
Pressure (altimeter): 30.38 inches Hg (1029.0 mb)
Winds: from the S (180 degrees) at 6 MPH (5 knots; 2.6 m/s)
Visibility: 6 or more miles (10+ km)
Ceiling: ceiling and visibility are OK
Clouds: unknown
Weather: no significant weather observed at this time

METAR text: LIME 211550Z 21005KT 140V260 CAVOK 15/M01 Q1030 NOSIG
Conditions at: LIME (BERGAMO/ORIO SER, IT) observed 1550 UTC 21 March 2019
Temperature: 15.0°C (59°F)
Dewpoint: -1.0°C (30°F) [RH = 33%]
Pressure (altimeter): 30.41 inches Hg (1030.0 mb)
Winds: from the SSW (210 degrees) at 6 MPH (5 knots; 2.6 m/s)
Visibility: 6 or more miles (10+ km)
Ceiling: ceiling and visibility are OK
Clouds: unknown
Weather: no significant weather observed at this time

METAR text: LIME 211520Z 22006KT 160V250 CAVOK 15/M01 Q1030 NOSIG
Conditions at: LIME (BERGAMO/ORIO SER, IT) observed 1520 UTC 21 March 2019
Temperature: 15.0°C (59°F)
Dewpoint: -1.0°C (30°F) [RH = 33%]
Pressure (altimeter): 30.41 inches Hg (1030.0 mb)
Winds: from the SW (220 degrees) at 7 MPH (6 knots; 3.1 m/s)
Visibility: 6 or more miles (10+ km)
Ceiling: ceiling and visibility are OK
Clouds: unknown
Weather: no significant weather observed at this time

METAR text: LIME 211450Z 19005KT 140V250 CAVOK 15/M01 Q1030 NOSIG
Conditions at: LIME (BERGAMO/ORIO SER, IT) observed 1450 UTC 21 March 2019
Temperature: 15.0°C (59°F)
Dewpoint: -1.0°C (30°F) [RH = 33%]
Pressure (altimeter): 30.41 inches Hg (1030.0 mb)
Winds: from the S (190 degrees) at 6 MPH (5 knots; 2.6 m/s)
Visibility: 6 or more miles (10+ km)
Ceiling: ceiling and visibility are OK
Clouds: unknown
Weather: no significant weather observed at this time

METAR text: LIME 211420Z 17005KT 130V240 CAVOK 15/M00 Q1030 NOSIG
Conditions at: LIME (BERGAMO/ORIO SER, IT) observed 1420 UTC 21 March 2019
Temperature: 15.0°C (59°F)
Dewpoint: 0.0°C (32°F) [RH = 36%]
Pressure (altimeter): 30.41 inches Hg (1030.0 mb)
Winds: from the S (170 degrees) at 6 MPH (5 knots; 2.6 m/s)
Visibility: 6 or more miles (10+ km)
Ceiling: ceiling and visibility are OK
Clouds: unknown
Weather: no significant weather observed at this time

METAR text: LIME 211350Z 24005KT 200V310 CAVOK 14/M02 Q1031 NOSIG
Conditions at: LIME (BERGAMO/ORIO SER, IT) observed 1350 UTC 21 March 2019
Temperature: 14.0°C (57°F)
Dewpoint: -2.0°C (28°F) [RH = 33%]
Pressure (altimeter): 30.44 inches Hg (1031.0 mb)
Winds: from the WSW (240 degrees) at 6 MPH (5 knots; 2.6 m/s)
Visibility: 6 or more miles (10+ km)
Ceiling: ceiling and visibility are OK
Clouds: unknown
Weather: no significant weather observed at this time

METAR text: LIME 211320Z VRB03KT CAVOK 14/M01 Q1031 NOSIG
Conditions at: LIME (BERGAMO/ORIO SER, IT) observed 1320 UTC 21 March 2019
Temperature: 14.0°C (57°F)
Dewpoint: -1.0°C (30°F) [RH = 36%]
Pressure (altimeter): 30.44 inches Hg (1031.0 mb)
Winds: variable direction winds at 3 MPH (3 knots; 1.5 m/s)
Visibility: 6 or more miles (10+ km)
Ceiling: ceiling and visibility are OK
Clouds: unknown
Weather: no significant weather observed at this time

METAR text: LIME 211250Z 18004KT 110V280 CAVOK 14/M02 Q1031 NOSIG
Conditions at: LIME (BERGAMO/ORIO SER, IT) observed 1250 UTC 21 March 2019
Temperature: 14.0°C (57°F)
Dewpoint: -2.0°C (28°F) [RH = 33%]
Pressure (altimeter): 30.44 inches Hg (1031.0 mb)
Winds: from the S (180 degrees) at 5 MPH (4 knots; 2.1 m/s)
Visibility: 6 or more miles (10+ km)
Ceiling: ceiling and visibility are OK
Clouds: unknown
Weather: no significant weather observed at this time

METAR text: LIME 211220Z 23005KT 170V300 CAVOK 13/M02 Q1032 NOSIG
Conditions at: LIME (BERGAMO/ORIO SER, IT) observed 1220 UTC 21 March 2019
Temperature: 13.0°C (55°F)
Dewpoint: -2.0°C (28°F) [RH = 35%]
Pressure (altimeter): 30.47 inches Hg (1032.0 mb)
Winds: from the SW (230 degrees) at 6 MPH (5 knots; 2.6 m/s)
Visibility: 6 or more miles (10+ km)
Ceiling: ceiling and visibility are OK
Clouds: unknown
Weather: no significant weather observed at this time

METAR text: LIME 211150Z 26004KT 210V290 CAVOK 13/M02 Q1032 NOSIG
Conditions at: LIME (BERGAMO/ORIO SER, IT) observed 1150 UTC 21 March 2019
Temperature: 13.0°C (55°F)
Dewpoint: -2.0°C (28°F) [RH = 35%]
Pressure (altimeter): 30.47 inches Hg (1032.0 mb)
Winds: from the W (260 degrees) at 5 MPH (4 knots; 2.1 m/s)
Visibility: 6 or more miles (10+ km)
Ceiling: ceiling and visibility are OK
Clouds: unknown
Weather: no significant weather observed at this time

METAR text: LIME 211120Z 21004KT 140V300 CAVOK 13/M02 Q1033 NOSIG
Conditions at: LIME (BERGAMO/ORIO SER, IT) observed 1120 UTC 21 March 2019
Temperature: 13.0°C (55°F)
Dewpoint: -2.0°C (28°F) [RH = 35%]
Pressure (altimeter): 30.50 inches Hg (1033.0 mb)
Winds: from the SSW (210 degrees) at 5 MPH (4 knots; 2.1 m/s)
Visibility: 6 or more miles (10+ km)
Ceiling: ceiling and visibility are OK
Clouds: unknown
Weather: no significant weather observed at this time

METAR text: LIME 211050Z 22006KT 160V290 CAVOK 12/M02 Q1033 NOSIG
Conditions at: LIME (BERGAMO/ORIO SER, IT) observed 1050 UTC 21 March 2019
Temperature: 12.0°C (54°F)
Dewpoint: -2.0°C (28°F) [RH = 38%]
Pressure (altimeter): 30.50 inches Hg (1033.0 mb)
Winds: from the SW (220 degrees) at 7 MPH (6 knots; 3.1 m/s)
Visibility: 6 or more miles (10+ km)
Ceiling: ceiling and visibility are OK
Clouds: unknown
Weather: no significant weather observed at this time

METAR text: LIME 211020Z VRB02KT CAVOK 13/M01 Q1033 NOSIG
Conditions at: LIME (BERGAMO/ORIO SER, IT) observed 1020 UTC 21 March 2019
Temperature: 13.0°C (55°F)
Dewpoint: -1.0°C (30°F) [RH = 38%]
Pressure (altimeter): 30.50 inches Hg (1033.0 mb)
Winds: variable direction winds at 2 MPH (2 knots; 1.0 m/s)
Visibility: 6 or more miles (10+ km)
Ceiling: ceiling and visibility are OK
Clouds: unknown
Weather: no significant weather observed at this time

METAR text: LIME 210950Z 29005KT 250V040 CAVOK 11/M02 Q1033 NOSIG
Conditions at: LIME (BERGAMO/ORIO SER, IT) observed 0950 UTC 21 March 2019
Temperature: 11.0°C (52°F)
Dewpoint: -2.0°C (28°F) [RH = 40%]
Pressure (altimeter): 30.50 inches Hg (1033.0 mb)
Winds: from the WNW (290 degrees) at 6 MPH (5 knots; 2.6 m/s)
Visibility: 6 or more miles (10+ km)
Ceiling: ceiling and visibility are OK
Clouds: unknown
Weather: no significant weather observed at this time

METAR text: LIME 210920Z 28007KT 250V310 CAVOK 11/M01 Q1033 NOSIG
Conditions at: LIME (BERGAMO/ORIO SER, IT) observed 0920 UTC 21 March 2019
Temperature: 11.0°C (52°F)
Dewpoint: -1.0°C (30°F) [RH = 43%]
Pressure (altimeter): 30.50 inches Hg (1033.0 mb)
Winds: from the W (280 degrees) at 8 MPH (7 knots; 3.6 m/s)
Visibility: 6 or more miles (10+ km)
Ceiling: ceiling and visibility are OK
Clouds: unknown
Weather: no significant weather observed at this time

METAR text: LIME 210850Z 28005KT 240V330 CAVOK 10/M02 Q1033 NOSIG
Conditions at: LIME (BERGAMO/ORIO SER, IT) observed 0850 UTC 21 March 2019
Temperature: 10.0°C (50°F)
Dewpoint: -2.0°C (28°F) [RH = 43%]
Pressure (altimeter): 30.50 inches Hg (1033.0 mb)
Winds: from the W (280 degrees) at 6 MPH (5 knots; 2.6 m/s)
Visibility: 6 or more miles (10+ km)
Ceiling: ceiling and visibility are OK
Clouds: unknown
Weather: no significant weather observed at this time

METAR text: LIME 210820Z VRB02KT CAVOK 09/M02 Q1033 NOSIG
Conditions at: LIME (BERGAMO/ORIO SER, IT) observed 0820 UTC 21 March 2019
Temperature: 9.0°C (48°F)
Dewpoint: -2.0°C (28°F) [RH = 46%]
Pressure (altimeter): 30.50 inches Hg (1033.0 mb)
Winds: variable direction winds at 2 MPH (2 knots; 1.0 m/s)
Visibility: 6 or more miles (10+ km)
Ceiling: ceiling and visibility are OK
Clouds: unknown
Weather: no significant weather observed at this time

METAR text: LIME 210750Z 03003KT 340V080 CAVOK 08/M01 Q1033 NOSIG
Conditions at: LIME (BERGAMO/ORIO SER, IT) observed 0750 UTC 21 March 2019
Temperature: 8.0°C (46°F)
Dewpoint: -1.0°C (30°F) [RH = 53%]
Pressure (altimeter): 30.50 inches Hg (1033.0 mb)
Winds: from the NNE (30 degrees) at 3 MPH (3 knots; 1.5 m/s)
Visibility: 6 or more miles (10+ km)
Ceiling: ceiling and visibility are OK
Clouds: unknown
Weather: no significant weather observed at this time

METAR text: LIME 210720Z 01003KT CAVOK 06/M01 Q1033 NOSIG
Conditions at: LIME (BERGAMO/ORIO SER, IT) observed 0720 UTC 21 March 2019
Temperature: 6.0°C (43°F)
Dewpoint: -1.0°C (30°F) [RH = 61%]
Pressure (altimeter): 30.50 inches Hg (1033.0 mb)
Winds: from the N (10 degrees) at 3 MPH (3 knots; 1.5 m/s)
Visibility: 6 or more miles (10+ km)
Ceiling: ceiling and visibility are OK
Clouds: unknown
Weather: no significant weather observed at this time

METAR text: LIME 210650Z 01004KT CAVOK 05/M01 Q1033 NOSIG
Conditions at: LIME (BERGAMO/ORIO SER, IT) observed 0650 UTC 21 March 2019
Temperature: 5.0°C (41°F)
Dewpoint: -1.0°C (30°F) [RH = 65%]
Pressure (altimeter): 30.50 inches Hg (1033.0 mb)
Winds: from the N (10 degrees) at 5 MPH (4 knots; 2.1 m/s)
Visibility: 6 or more miles (10+ km)
Ceiling: ceiling and visibility are OK
Clouds: unknown
Weather: no significant weather observed at this time

METAR text: LIME 210620Z 02005KT CAVOK 03/M01 Q1033 NOSIG
Conditions at: LIME (BERGAMO/ORIO SER, IT) observed 0620 UTC 21 March 2019
Temperature: 3.0°C (37°F)
Dewpoint: -1.0°C (30°F) [RH = 75%]
Pressure (altimeter): 30.50 inches Hg (1033.0 mb)
Winds: from the NNE (20 degrees) at 6 MPH (5 knots; 2.6 m/s)
Visibility: 6 or more miles (10+ km)
Ceiling: ceiling and visibility are OK
Clouds: unknown
Weather: no significant weather observed at this time

METAR text: LIME 210550Z 02003KT CAVOK 02/M02 Q1033 NOSIG
Conditions at: LIME (BERGAMO/ORIO SER, IT) observed 0550 UTC 21 March 2019
Temperature: 2.0°C (36°F)
Dewpoint: -2.0°C (28°F) [RH = 75%]
Pressure (altimeter): 30.50 inches Hg (1033.0 mb)
Winds: from the NNE (20 degrees) at 3 MPH (3 knots; 1.5 m/s)
Visibility: 6 or more miles (10+ km)
Ceiling: ceiling and visibility are OK
Clouds: unknown
Weather: no significant weather observed at this time

METAR text: LIME 210520Z 36004KT CAVOK 03/M02 Q1032 NOSIG
Conditions at: LIME (BERGAMO/ORIO SER, IT) observed 0520 UTC 21 March 2019
Temperature: 3.0°C (37°F)
Dewpoint: -2.0°C (28°F) [RH = 70%]
Pressure (altimeter): 30.47 inches Hg (1032.0 mb)
Winds: from the N (360 degrees) at 5 MPH (4 knots; 2.1 m/s)
Visibility: 6 or more miles (10+ km)
Ceiling: ceiling and visibility are OK
Clouds: unknown
Weather: no significant weather observed at this time

METAR text: LIME 210450Z 36005KT CAVOK 03/M02 Q1032 NOSIG
Conditions at: LIME (BERGAMO/ORIO SER, IT) observed 0450 UTC 21 March 2019
Temperature: 3.0°C (37°F)
Dewpoint: -2.0°C (28°F) [RH = 70%]
Pressure (altimeter): 30.47 inches Hg (1032.0 mb)
Winds: from the N (360 degrees) at 6 MPH (5 knots; 2.6 m/s)
Visibility: 6 or more miles (10+ km)
Ceiling: ceiling and visibility are OK
Clouds: unknown
Weather: no significant weather observed at this time

METAR text: LIME 210420Z 35004KT CAVOK 03/M02 Q1032 NOSIG
Conditions at: LIME (BERGAMO/ORIO SER, IT) observed 0420 UTC 21 March 2019
Temperature: 3.0°C (37°F)
Dewpoint: -2.0°C (28°F) [RH = 70%]
Pressure (altimeter): 30.47 inches Hg (1032.0 mb)
Winds: from the N (350 degrees) at 5 MPH (4 knots; 2.1 m/s)
Visibility: 6 or more miles (10+ km)
Ceiling: ceiling and visibility are OK
Clouds: unknown
Weather: no significant weather observed at this time

METAR text: LIME 210350Z 36004KT CAVOK 03/M02 Q1032 NOSIG
Conditions at: LIME (BERGAMO/ORIO SER, IT) observed 0350 UTC 21 March 2019
Temperature: 3.0°C (37°F)
Dewpoint: -2.0°C (28°F) [RH = 70%]
Pressure (altimeter): 30.47 inches Hg (1032.0 mb)
Winds: from the N (360 degrees) at 5 MPH (4 knots; 2.1 m/s)
Visibility: 6 or more miles (10+ km)
Ceiling: ceiling and visibility are OK
Clouds: unknown
Weather: no significant weather observed at this time

METAR text: LIME 210320Z 34003KT CAVOK 03/M02 Q1032 NOSIG
Conditions at: LIME (BERGAMO/ORIO SER, IT) observed 0320 UTC 21 March 2019
Temperature: 3.0°C (37°F)
Dewpoint: -2.0°C (28°F) [RH = 70%]
Pressure (altimeter): 30.47 inches Hg (1032.0 mb)
Winds: from the NNW (340 degrees) at 3 MPH (3 knots; 1.5 m/s)
Visibility: 6 or more miles (10+ km)
Ceiling: ceiling and visibility are OK
Clouds: unknown
Weather: no significant weather observed at this time

METAR text: LIME 210250Z 36004KT CAVOK 03/M02 Q1032 NOSIG
Conditions at: LIME (BERGAMO/ORIO SER, IT) observed 0250 UTC 21 March 2019
Temperature: 3.0°C (37°F)
Dewpoint: -2.0°C (28°F) [RH = 70%]
Pressure (altimeter): 30.47 inches Hg (1032.0 mb)
Winds: from the N (360 degrees) at 5 MPH (4 knots; 2.1 m/s)
Visibility: 6 or more miles (10+ km)
Ceiling: ceiling and visibility are OK
Clouds: unknown
Weather: no significant weather observed at this time

METAR text: LIME 210220Z 36006KT CAVOK 03/M02 Q1032 NOSIG
Conditions at: LIME (BERGAMO/ORIO SER, IT) observed 0220 UTC 21 March 2019
Temperature: 3.0°C (37°F)
Dewpoint: -2.0°C (28°F) [RH = 70%]
Pressure (altimeter): 30.47 inches Hg (1032.0 mb)
Winds: from the N (360 degrees) at 7 MPH (6 knots; 3.1 m/s)
Visibility: 6 or more miles (10+ km)
Ceiling: ceiling and visibility are OK
Clouds: unknown
Weather: no significant weather observed at this time

METAR text: LIME 210150Z 01004KT CAVOK 04/M01 Q1032 NOSIG
Conditions at: LIME (BERGAMO/ORIO SER, IT) observed 0150 UTC 21 March 2019
Temperature: 4.0°C (39°F)
Dewpoint: -1.0°C (30°F) [RH = 70%]
Pressure (altimeter): 30.47 inches Hg (1032.0 mb)
Winds: from the N (10 degrees) at 5 MPH (4 knots; 2.1 m/s)
Visibility: 6 or more miles (10+ km)
Ceiling: ceiling and visibility are OK
Clouds: unknown
Weather: no significant weather observed at this time

METAR text: LIME 210120Z 01006KT CAVOK 03/M01 Q1033 NOSIG
Conditions at: LIME (BERGAMO/ORIO SER, IT) observed 0120 UTC 21 March 2019
Temperature: 3.0°C (37°F)
Dewpoint: -1.0°C (30°F) [RH = 75%]
Pressure (altimeter): 30.50 inches Hg (1033.0 mb)
Winds: from the N (10 degrees) at 7 MPH (6 knots; 3.1 m/s)
Visibility: 6 or more miles (10+ km)
Ceiling: ceiling and visibility are OK
Clouds: unknown
Weather: no significant weather observed at this time

Forecast for: LIME (BERGAMO/ORIO SER, IT)
Text: TAF LIME 221100Z 2212/2312 VRB05KT CAVOK
Forecast period: 1200 UTC 22 March 2019 to 1200 UTC 23 March 2019
Forecast type: FROM: standard forecast or significant change
Winds: variable direction winds at 6 MPH (5 knots; 2.6 m/s)
Visibility: 6 or more miles 10+ km)
Ceiling: unknown
Clouds: missing
Weather: NSW  (no significant weather)